sensor_id;sensor_type;location;lat;lon;timestamp;pressure;altitude;pressure_sealevel;temperature;humidity
69796;BME280;57073;45.650;9.612;2023-03-16T00:01:03;99376.22;;;6.40;28.34
69796;BME280;57073;45.650;9.612;2023-03-16T00:06:04;99372.72;;;6.33;28.71
69796;BME280;57073;45.650;9.612;2023-03-16T00:11:04;99376.03;;;6.22;28.40
69796;BME280;57073;45.650;9.612;2023-03-16T00:16:05;99379.94;;;6.19;29.08
69796;BME280;57073;45.650;9.612;2023-03-16T00:21:06;99378.91;;;6.20;28.21
69796;BME280;57073;45.650;9.612;2023-03-16T00:26:07;99383.84;;;6.17;29.08
69796;BME280;57073;45.650;9.612;2023-03-16T00:31:10;99384.88;;;6.02;28.84
69796;BME280;57073;45.650;9.612;2023-03-16T00:36:11;99381.34;;;5.95;28.95
69796;BME280;57073;45.650;9.612;2023-03-16T00:41:13;99376.81;;;5.82;29.27
69796;BME280;57073;45.650;9.612;2023-03-16T00:46:15;99388.97;;;5.78;29.63
69796;BME280;57073;45.650;9.612;2023-03-16T00:51:17;99384.44;;;5.72;29.61
69796;BME280;57073;45.650;9.612;2023-03-16T00:56:17;99380.31;;;5.76;29.50
69796;BME280;57073;45.650;9.612;2023-03-16T01:01:18;99381.56;;;5.87;28.79
69796;BME280;57073;45.650;9.612;2023-03-16T01:06:19;99380.34;;;5.96;28.92
69796;BME280;57073;45.650;9.612;2023-03-16T01:11:21;99383.03;;;6.03;28.64
69796;BME280;57073;45.650;9.612;2023-03-16T01:16:22;99373.16;;;6.04;28.78
69796;BME280;57073;45.650;9.612;2023-03-16T01:21:22;99376.84;;;5.96;29.24
69796;BME280;57073;45.650;9.612;2023-03-16T01:26:23;99377.22;;;5.86;28.73
69796;BME280;57073;45.650;9.612;2023-03-16T01:31:24;99378.28;;;5.85;27.88
69796;BME280;57073;45.650;9.612;2023-03-16T01:36:24;99368.63;;;5.97;28.08
69796;BME280;57073;45.650;9.612;2023-03-16T01:41:25;99364.06;;;5.91;28.25
69796;BME280;57073;45.650;9.612;2023-03-16T01:46:27;99354.59;;;5.82;29.41
69796;BME280;57073;45.650;9.612;2023-03-16T01:51:50;99358.09;;;5.89;29.42
69796;BME280;57073;45.650;9.612;2023-03-16T02:01:55;99349.88;;;5.97;29.90
69796;BME280;57073;45.650;9.612;2023-03-16T02:06:56;99355.03;;;5.92;28.98
69796;BME280;57073;45.650;9.612;2023-03-16T02:11:57;99343.25;;;5.60;29.85
69796;BME280;57073;45.650;9.612;2023-03-16T02:16:57;99344.28;;;5.79;29.33
69796;BME280;57073;45.650;9.612;2023-03-16T02:22:02;99341.81;;;5.71;30.49
69796;BME280;57073;45.650;9.612;2023-03-16T02:27:11;99341.00;;;5.63;31.66
69796;BME280;57073;45.650;9.612;2023-03-16T02:32:13;99343.47;;;5.72;30.00
69796;BME280;57073;45.650;9.612;2023-03-16T02:37:14;99344.69;;;5.69;29.93
69796;BME280;57073;45.650;9.612;2023-03-16T02:42:17;99351.25;;;5.53;31.39
69796;BME280;57073;45.650;9.612;2023-03-16T02:52:28;99347.13;;;5.44;31.37
69796;BME280;57073;45.650;9.612;2023-03-16T02:57:29;99347.97;;;5.51;31.74
69796;BME280;57073;45.650;9.612;2023-03-16T03:02:30;99345.09;;;5.53;31.69
69796;BME280;57073;45.650;9.612;2023-03-16T03:07:31;99343.41;;;5.52;30.83
69796;BME280;57073;45.650;9.612;2023-03-16T03:12:32;99358.19;;;5.41;31.43
69796;BME280;57073;45.650;9.612;2023-03-16T03:17:33;99370.31;;;5.37;30.86
69796;BME280;57073;45.650;9.612;2023-03-16T03:22:33;99359.97;;;5.20;32.05
69796;BME280;57073;45.650;9.612;2023-03-16T03:27:34;99381.06;;;5.02;32.59
69796;BME280;57073;45.650;9.612;2023-03-16T03:32:35;99383.69;;;4.89;32.92
69796;BME280;57073;45.650;9.612;2023-03-16T03:37:35;99383.03;;;4.80;31.88
69796;BME280;57073;45.650;9.612;2023-03-16T03:42:36;99385.72;;;4.86;32.19
69796;BME280;57073;45.650;9.612;2023-03-16T03:47:36;99394.16;;;4.90;31.88
69796;BME280;57073;45.650;9.612;2023-03-16T03:52:36;99395.81;;;4.91;32.98
69796;BME280;57073;45.650;9.612;2023-03-16T03:57:37;99400.53;;;4.89;33.00
69796;BME280;57073;45.650;9.612;2023-03-16T04:02:38;99396.63;;;4.85;32.67
69796;BME280;57073;45.650;9.612;2023-03-16T04:07:38;99401.97;;;4.85;33.55
69796;BME280;57073;45.650;9.612;2023-03-16T04:12:39;99415.91;;;4.80;33.50
69796;BME280;57073;45.650;9.612;2023-03-16T04:17:39;99416.69;;;4.74;32.49
69796;BME280;57073;45.650;9.612;2023-03-16T04:22:41;99415.16;;;4.65;33.37
69796;BME280;57073;45.650;9.612;2023-03-16T04:27:42;99425.84;;;4.65;33.56
69796;BME280;57073;45.650;9.612;2023-03-16T04:32:42;99425.72;;;4.73;32.61
69796;BME280;57073;45.650;9.612;2023-03-16T04:37:43;99426.44;;;4.60;33.43
69796;BME280;57073;45.650;9.612;2023-03-16T04:42:45;99439.50;;;4.48;33.43
69796;BME280;57073;45.650;9.612;2023-03-16T04:47:46;99441.78;;;4.52;33.35
69796;BME280;57073;45.650;9.612;2023-03-16T04:52:46;99448.38;;;4.56;33.26
69796;BME280;57073;45.650;9.612;2023-03-16T04:57:46;99447.88;;;4.67;33.08
69796;BME280;57073;45.650;9.612;2023-03-16T05:02:47;99452.00;;;4.70;33.18
69796;BME280;57073;45.650;9.612;2023-03-16T05:07:49;99446.50;;;4.78;33.20
69796;BME280;57073;45.650;9.612;2023-03-16T05:12:49;99450.75;;;4.72;32.89
69796;BME280;57073;45.650;9.612;2023-03-16T05:17:49;99447.81;;;4.60;32.87
69796;BME280;57073;45.650;9.612;2023-03-16T05:22:50;99468.75;;;4.57;34.34
69796;BME280;57073;45.650;9.612;2023-03-16T05:27:51;99470.50;;;4.71;33.32
69796;BME280;57073;45.650;9.612;2023-03-16T05:32:53;99475.84;;;4.71;32.69
69796;BME280;57073;45.650;9.612;2023-03-16T05:37:55;99470.13;;;4.74;33.17
69796;BME280;57073;45.650;9.612;2023-03-16T05:42:56;99482.44;;;4.75;33.69
69796;BME280;57073;45.650;9.612;2023-03-16T05:47:57;99487.78;;;4.75;33.29
69796;BME280;57073;45.650;9.612;2023-03-16T05:52:57;99507.28;;;4.76;34.25
69796;BME280;57073;45.650;9.612;2023-03-16T05:57:58;99506.47;;;4.75;34.42
69796;BME280;57073;45.650;9.612;2023-03-16T06:02:58;99517.28;;;4.89;34.65
69796;BME280;57073;45.650;9.612;2023-03-16T06:07:59;99520.25;;;5.00;34.73
69796;BME280;57073;45.650;9.612;2023-03-16T06:12:59;99521.34;;;5.13;34.94
69796;BME280;57073;45.650;9.612;2023-03-16T06:17:59;99538.72;;;5.30;34.18
69796;BME280;57073;45.650;9.612;2023-03-16T06:23:00;99550.09;;;5.39;33.30
69796;BME280;57073;45.650;9.612;2023-03-16T06:28:00;99557.13;;;5.40;32.59
69796;BME280;57073;45.650;9.612;2023-03-16T06:33:01;99555.53;;;5.46;34.88
69796;BME280;57073;45.650;9.612;2023-03-16T06:38:01;99564.91;;;5.70;35.33
69796;BME280;57073;45.650;9.612;2023-03-16T06:43:01;99567.13;;;6.01;34.35
69796;BME280;57073;45.650;9.612;2023-03-16T06:48:02;99570.06;;;6.26;34.17
69796;BME280;57073;45.650;9.612;2023-03-16T06:53:02;99575.94;;;6.76;34.08
69796;BME280;57073;45.650;9.612;2023-03-16T06:58:02;99579.88;;;7.34;33.53
69796;BME280;57073;45.650;9.612;2023-03-16T07:03:03;99585.72;;;7.89;32.89
69796;BME280;57073;45.650;9.612;2023-03-16T07:08:03;99586.38;;;8.37;31.49
69796;BME280;57073;45.650;9.612;2023-03-16T07:13:04;99590.53;;;8.64;30.03
69796;BME280;57073;45.650;9.612;2023-03-16T07:18:04;99602.19;;;8.90;29.71
69796;BME280;57073;45.650;9.612;2023-03-16T07:23:04;99600.66;;;9.26;29.18
69796;BME280;57073;45.650;9.612;2023-03-16T07:28:05;99612.75;;;9.79;28.53
69796;BME280;57073;45.650;9.612;2023-03-16T07:33:05;99618.91;;;10.04;27.87
69796;BME280;57073;45.650;9.612;2023-03-16T07:38:05;99622.81;;;10.57;29.13
69796;BME280;57073;45.650;9.612;2023-03-16T07:43:06;99621.63;;;10.84;28.21
69796;BME280;57073;45.650;9.612;2023-03-16T07:48:06;99637.03;;;11.07;27.62
69796;BME280;57073;45.650;9.612;2023-03-16T07:53:07;99641.19;;;11.45;27.31
69796;BME280;57073;45.650;9.612;2023-03-16T07:58:08;99643.66;;;11.93;27.68
69796;BME280;57073;45.650;9.612;2023-03-16T08:03:09;99651.34;;;12.37;26.96
69796;BME280;57073;45.650;9.612;2023-03-16T08:08:10;99667.00;;;12.64;24.69
69796;BME280;57073;45.650;9.612;2023-03-16T08:13:11;99672.84;;;12.72;24.81
69796;BME280;57073;45.650;9.612;2023-03-16T08:18:11;99674.75;;;12.72;23.03
69796;BME280;57073;45.650;9.612;2023-03-16T08:23:11;99669.81;;;12.69;23.69
69796;BME280;57073;45.650;9.612;2023-03-16T08:28:13;99681.41;;;12.52;23.86
69796;BME280;57073;45.650;9.612;2023-03-16T08:33:14;99693.03;;;12.94;22.60
69796;BME280;57073;45.650;9.612;2023-03-16T08:38:17;99701.56;;;13.02;24.42
69796;BME280;57073;45.650;9.612;2023-03-16T08:43:18;99709.19;;;12.36;23.56
69796;BME280;57073;45.650;9.612;2023-03-16T08:48:19;99704.03;;;12.23;23.19
69796;BME280;57073;45.650;9.612;2023-03-16T08:53:20;99716.38;;;12.71;24.71
69796;BME280;57073;45.650;9.612;2023-03-16T08:58:20;99720.72;;;12.84;24.55
69796;BME280;57073;45.650;9.612;2023-03-16T09:03:21;99722.25;;;12.39;23.92
69796;BME280;57073;45.650;9.612;2023-03-16T09:08:21;99724.25;;;13.13;25.03
69796;BME280;57073;45.650;9.612;2023-03-16T09:13:22;99725.91;;;13.31;25.01
69796;BME280;57073;45.650;9.612;2023-03-16T09:18:23;99732.41;;;12.61;24.31
69796;BME280;57073;45.650;9.612;2023-03-16T09:23:25;99725.50;;;13.22;25.34
69796;BME280;57073;45.650;9.612;2023-03-16T09:28:27;99721.53;;;12.84;25.46
69796;BME280;57073;45.650;9.612;2023-03-16T09:33:28;99713.91;;;12.29;25.28
69796;BME280;57073;45.650;9.612;2023-03-16T09:38:31;99722.75;;;13.05;25.84
69796;BME280;57073;45.650;9.612;2023-03-16T09:48:56;99721.34;;;11.86;25.27
69796;BME280;57073;45.650;9.612;2023-03-16T09:54:00;99708.66;;;11.63;26.73
69796;BME280;57073;45.650;9.612;2023-03-16T09:59:09;99716.72;;;11.09;26.81
69796;BME280;57073;45.650;9.612;2023-03-16T10:09:50;99711.06;;;11.53;28.95
69796;BME280;57073;45.650;9.612;2023-03-16T10:15:00;99705.41;;;11.43;27.68
69796;BME280;57073;45.650;9.612;2023-03-16T10:20:12;99706.13;;;11.50;28.86
69796;BME280;57073;45.650;9.612;2023-03-16T10:30:34;99723.22;;;10.90;29.67
69796;BME280;57073;45.650;9.612;2023-03-16T10:35:40;99713.63;;;11.36;29.78
69796;BME280;57073;45.650;9.612;2023-03-16T10:40:44;99712.91;;;11.29;29.36
69796;BME280;57073;45.650;9.612;2023-03-16T10:45:44;99702.16;;;11.10;31.46
69796;BME280;57073;45.650;9.612;2023-03-16T10:50:54;99716.94;;;11.50;31.70
69796;BME280;57073;45.650;9.612;2023-03-16T10:55:57;99719.41;;;10.79;32.72
69796;BME280;57073;45.650;9.612;2023-03-16T11:00:58;99727.69;;;10.66;31.85
69796;BME280;57073;45.650;9.612;2023-03-16T11:06:02;99706.88;;;11.15;32.84
69796;BME280;57073;45.650;9.612;2023-03-16T11:11:16;99716.78;;;10.42;32.04
69796;BME280;57073;45.650;9.612;2023-03-16T11:26:52;99705.50;;;10.45;33.30
69796;BME280;57073;45.650;9.612;2023-03-16T11:31:59;99699.97;;;10.58;33.78
69796;BME280;57073;45.650;9.612;2023-03-16T11:37:28;99701.69;;;11.02;34.32
69796;BME280;57073;45.650;9.612;2023-03-16T11:42:38;99688.50;;;10.93;32.95
69796;BME280;57073;45.650;9.612;2023-03-16T12:09:15;99684.53;;;11.38;32.58
69796;BME280;57073;45.650;9.612;2023-03-16T12:20:00;99676.41;;;11.50;32.27
69796;BME280;57073;45.650;9.612;2023-03-16T12:25:12;99659.84;;;11.46;33.19
69796;BME280;57073;45.650;9.612;2023-03-16T12:30:45;99669.03;;;10.91;33.11
69796;BME280;57073;45.650;9.612;2023-03-16T12:41:25;99656.94;;;10.94;34.21
69796;BME280;57073;45.650;9.612;2023-03-16T12:46:41;99657.97;;;11.23;32.39
69796;BME280;57073;45.650;9.612;2023-03-16T12:51:45;99653.53;;;11.29;34.44
69796;BME280;57073;45.650;9.612;2023-03-16T12:56:49;99650.00;;;11.40;33.95
69796;BME280;57073;45.650;9.612;2023-03-16T13:01:55;99647.06;;;11.53;33.62
69796;BME280;57073;45.650;9.612;2023-03-16T13:07:22;99635.75;;;11.21;33.57
69796;BME280;57073;45.650;9.612;2023-03-16T13:12:30;99626.75;;;11.27;33.88
69796;BME280;57073;45.650;9.612;2023-03-16T13:17:40;99635.34;;;10.82;34.43
69796;BME280;57073;45.650;9.612;2023-03-16T13:22:43;99629.50;;;10.97;33.66
69796;BME280;57073;45.650;9.612;2023-03-16T13:27:48;99627.03;;;10.84;33.28
69796;BME280;57073;45.650;9.612;2023-03-16T13:32:54;99610.31;;;11.17;32.24
69796;BME280;57073;45.650;9.612;2023-03-16T13:38:02;99619.38;;;11.34;32.73
69796;BME280;57073;45.650;9.612;2023-03-16T13:43:04;99611.13;;;11.41;33.25
69796;BME280;57073;45.650;9.612;2023-03-16T13:48:09;99613.72;;;11.48;33.25
69796;BME280;57073;45.650;9.612;2023-03-16T13:53:15;99618.09;;;11.49;32.33
69796;BME280;57073;45.650;9.612;2023-03-16T13:58:22;99617.81;;;11.15;32.38
69796;BME280;57073;45.650;9.612;2023-03-16T14:03:36;99613.59;;;11.31;31.79
69796;BME280;57073;45.650;9.612;2023-03-16T14:08:49;99611.03;;;11.48;31.70
69796;BME280;57073;45.650;9.612;2023-03-16T14:13:52;99609.97;;;11.37;31.97
69796;BME280;57073;45.650;9.612;2023-03-16T14:19:07;99602.91;;;11.24;32.07
69796;BME280;57073;45.650;9.612;2023-03-16T14:24:38;99598.22;;;11.08;31.83
69796;BME280;57073;45.650;9.612;2023-03-16T14:29:40;99603.56;;;10.84;32.46
69796;BME280;57073;45.650;9.612;2023-03-16T14:34:48;99600.53;;;11.04;32.44
69796;BME280;57073;45.650;9.612;2023-03-16T14:40:01;99595.59;;;11.01;31.62
69796;BME280;57073;45.650;9.612;2023-03-16T14:45:11;99594.59;;;10.72;32.13
69796;BME280;57073;45.650;9.612;2023-03-16T14:50:20;99593.06;;;11.30;31.60
69796;BME280;57073;45.650;9.612;2023-03-16T14:55:21;99601.28;;;11.47;32.37
69796;BME280;57073;45.650;9.612;2023-03-16T15:00:23;99601.63;;;11.15;32.05
69796;BME280;57073;45.650;9.612;2023-03-16T15:05:39;99601.16;;;11.30;32.57
69796;BME280;57073;45.650;9.612;2023-03-16T15:10:41;99597.38;;;11.19;31.77
69796;BME280;57073;45.650;9.612;2023-03-16T15:15:43;99597.47;;;10.89;32.35
69796;BME280;57073;45.650;9.612;2023-03-16T15:20:44;99601.53;;;10.79;32.11
69796;BME280;57073;45.650;9.612;2023-03-16T15:25:47;99596.47;;;11.25;31.99
69796;BME280;57073;45.650;9.612;2023-03-16T15:30:53;99603.16;;;11.11;31.51
69796;BME280;57073;45.650;9.612;2023-03-16T15:35:58;99597.94;;;10.86;32.72
69796;BME280;57073;45.650;9.612;2023-03-16T15:40:59;99590.88;;;10.73;32.28
69796;BME280;57073;45.650;9.612;2023-03-16T15:46:00;99595.91;;;10.81;32.26
69796;BME280;57073;45.650;9.612;2023-03-16T15:51:05;99593.28;;;11.16;32.29
69796;BME280;57073;45.650;9.612;2023-03-16T15:56:15;99595.38;;;11.03;32.45
69796;BME280;57073;45.650;9.612;2023-03-16T16:01:24;99597.16;;;11.09;31.82
69796;BME280;57073;45.650;9.612;2023-03-16T16:06:25;99579.28;;;10.84;31.90
69796;BME280;57073;45.650;9.612;2023-03-16T16:11:27;99579.53;;;10.94;31.93
69796;BME280;57073;45.650;9.612;2023-03-16T16:16:28;99584.88;;;10.71;32.45
69796;BME280;57073;45.650;9.612;2023-03-16T16:21:29;99587.97;;;10.56;32.07
69796;BME280;57073;45.650;9.612;2023-03-16T16:26:35;99591.81;;;10.90;31.97
69796;BME280;57073;45.650;9.612;2023-03-16T16:31:36;99594.22;;;10.56;32.44
69796;BME280;57073;45.650;9.612;2023-03-16T16:36:37;99605.91;;;10.50;32.86
69796;BME280;57073;45.650;9.612;2023-03-16T16:41:38;99606.09;;;10.37;32.61
69796;BME280;57073;45.650;9.612;2023-03-16T16:46:39;99604.53;;;10.59;32.82
69796;BME280;57073;45.650;9.612;2023-03-16T16:51:41;99611.88;;;10.52;33.10
69796;BME280;57073;45.650;9.612;2023-03-16T16:56:42;99625.63;;;10.51;32.38
69796;BME280;57073;45.650;9.612;2023-03-16T17:01:44;99614.31;;;10.42;32.47
69796;BME280;57073;45.650;9.612;2023-03-16T17:06:45;99624.63;;;10.45;33.01
69796;BME280;57073;45.650;9.612;2023-03-16T17:11:45;99637.06;;;10.46;32.72
69796;BME280;57073;45.650;9.612;2023-03-16T17:16:46;99644.75;;;10.31;33.24
69796;BME280;57073;45.650;9.612;2023-03-16T17:21:50;99653.16;;;10.16;33.03
69796;BME280;57073;45.650;9.612;2023-03-16T17:26:53;99653.53;;;10.19;33.19
69796;BME280;57073;45.650;9.612;2023-03-16T17:31:54;99662.16;;;10.28;32.44
69796;BME280;57073;45.650;9.612;2023-03-16T17:36:55;99670.31;;;10.21;33.08
69796;BME280;57073;45.650;9.612;2023-03-16T17:42:00;99659.41;;;10.16;32.76
69796;BME280;57073;45.650;9.612;2023-03-16T17:47:01;99666.00;;;10.39;32.42
69796;BME280;57073;45.650;9.612;2023-03-16T17:52:10;99675.75;;;10.40;32.40
69796;BME280;57073;45.650;9.612;2023-03-16T17:57:17;99670.34;;;10.40;32.51
69796;BME280;57073;45.650;9.612;2023-03-16T18:02:39;99675.47;;;10.60;32.27
69796;BME280;57073;45.650;9.612;2023-03-16T18:07:42;99677.06;;;10.49;32.31
69796;BME280;57073;45.650;9.612;2023-03-16T18:12:43;99671.97;;;10.41;32.85
69796;BME280;57073;45.650;9.612;2023-03-16T18:17:44;99685.38;;;10.29;32.79
69796;BME280;57073;45.650;9.612;2023-03-16T18:22:45;99688.72;;;10.24;33.41
69796;BME280;57073;45.650;9.612;2023-03-16T18:27:45;99688.69;;;10.31;32.69
69796;BME280;57073;45.650;9.612;2023-03-16T18:32:46;99703.13;;;10.37;33.62
69796;BME280;57073;45.650;9.612;2023-03-16T18:37:47;99707.06;;;10.16;33.56
69796;BME280;57073;45.650;9.612;2023-03-16T18:42:48;99708.50;;;10.00;33.77
69796;BME280;57073;45.650;9.612;2023-03-16T18:47:51;99721.97;;;10.18;34.28
69796;BME280;57073;45.650;9.612;2023-03-16T18:52:53;99728.13;;;10.26;34.35
69796;BME280;57073;45.650;9.612;2023-03-16T18:57:54;99737.69;;;10.21;34.18
69796;BME280;57073;45.650;9.612;2023-03-16T19:02:58;99735.81;;;10.03;34.44
69796;BME280;57073;45.650;9.612;2023-03-16T19:08:01;99734.38;;;9.76;34.61
69796;BME280;57073;45.650;9.612;2023-03-16T19:13:02;99741.44;;;9.77;34.95
69796;BME280;57073;45.650;9.612;2023-03-16T19:18:03;99743.84;;;9.60;34.64
69796;BME280;57073;45.650;9.612;2023-03-16T19:23:09;99750.88;;;9.61;34.65
69796;BME280;57073;45.650;9.612;2023-03-16T19:28:33;99764.13;;;9.62;35.32
69796;BME280;57073;45.650;9.612;2023-03-16T19:33:35;99770.69;;;9.41;35.43
69796;BME280;57073;45.650;9.612;2023-03-16T19:38:37;99771.19;;;9.32;35.65
69796;BME280;57073;45.650;9.612;2023-03-16T19:43:38;99781.97;;;9.25;35.80
69796;BME280;57073;45.650;9.612;2023-03-16T19:48:38;99793.50;;;9.00;36.53
69796;BME280;57073;45.650;9.612;2023-03-16T19:53:39;99795.72;;;9.10;36.49
69796;BME280;57073;45.650;9.612;2023-03-16T19:58:40;99799.56;;;8.76;36.93
69796;BME280;57073;45.650;9.612;2023-03-16T20:03:42;99812.78;;;8.77;37.13
69796;BME280;57073;45.650;9.612;2023-03-16T20:08:45;99805.00;;;8.62;37.63
69796;BME280;57073;45.650;9.612;2023-03-16T20:13:46;99820.88;;;8.77;37.13
69796;BME280;57073;45.650;9.612;2023-03-16T20:18:48;99804.59;;;8.45;37.19
69796;BME280;57073;45.650;9.612;2023-03-16T20:23:52;99827.81;;;8.26;38.58
69796;BME280;57073;45.650;9.612;2023-03-16T20:28:52;99835.66;;;8.21;37.66
69796;BME280;57073;45.650;9.612;2023-03-16T20:33:53;99844.31;;;8.43;37.60
69796;BME280;57073;45.650;9.612;2023-03-16T20:38:53;99847.59;;;8.52;37.64
69796;BME280;57073;45.650;9.612;2023-03-16T20:43:55;99853.38;;;7.55;39.78
69796;BME280;57073;45.650;9.612;2023-03-16T20:48:58;99861.03;;;7.72;39.19
69796;BME280;57073;45.650;9.612;2023-03-16T20:54:02;99874.91;;;7.96;38.74
69796;BME280;57073;45.650;9.612;2023-03-16T20:59:03;99874.38;;;7.32;40.10
69796;BME280;57073;45.650;9.612;2023-03-16T21:04:03;99889.72;;;7.51;39.16
69796;BME280;57073;45.650;9.612;2023-03-16T21:09:05;99890.97;;;7.69;39.19
69796;BME280;57073;45.650;9.612;2023-03-16T21:14:13;99891.97;;;7.54;39.55
69796;BME280;57073;45.650;9.612;2023-03-16T21:19:16;99911.19;;;7.58;39.51
69796;BME280;57073;45.650;9.612;2023-03-16T21:24:17;99910.59;;;7.63;39.54
69796;BME280;57073;45.650;9.612;2023-03-16T21:29:18;99914.78;;;7.30;39.99
69796;BME280;57073;45.650;9.612;2023-03-16T21:34:25;99907.94;;;7.28;40.04
69796;BME280;57073;45.650;9.612;2023-03-16T21:39:27;99918.72;;;7.34;39.55
69796;BME280;57073;45.650;9.612;2023-03-16T21:44:27;99919.31;;;7.30;39.88
69796;BME280;57073;45.650;9.612;2023-03-16T21:49:28;99925.03;;;7.13;39.30
69796;BME280;57073;45.650;9.612;2023-03-16T21:54:28;99929.38;;;7.21;39.25
69796;BME280;57073;45.650;9.612;2023-03-16T21:59:29;99926.63;;;7.49;38.63
69796;BME280;57073;45.650;9.612;2023-03-16T22:04:29;99930.81;;;7.24;39.11
69796;BME280;57073;45.650;9.612;2023-03-16T22:09:29;99930.75;;;7.45;38.39
69796;BME280;57073;45.650;9.612;2023-03-16T22:14:31;99923.91;;;7.36;38.72
69796;BME280;57073;45.650;9.612;2023-03-16T22:19:32;99933.19;;;7.40;38.47
69796;BME280;57073;45.650;9.612;2023-03-16T22:24:33;99932.66;;;7.51;38.03
69796;BME280;57073;45.650;9.612;2023-03-16T22:29:35;99935.72;;;7.55;37.94
69796;BME280;57073;45.650;9.612;2023-03-16T22:34:43;99929.50;;;7.41;38.00
69796;BME280;57073;45.650;9.612;2023-03-16T22:39:45;99931.03;;;7.22;38.54
69796;BME280;57073;45.650;9.612;2023-03-16T22:44:46;99917.22;;;7.25;38.30
69796;BME280;57073;45.650;9.612;2023-03-16T22:49:46;99929.06;;;7.38;37.73
69796;BME280;57073;45.650;9.612;2023-03-16T22:54:47;99927.22;;;7.38;37.63
69796;BME280;57073;45.650;9.612;2023-03-16T22:59:48;99922.72;;;7.59;37.32
69796;BME280;57073;45.650;9.612;2023-03-16T23:04:50;99923.53;;;7.52;37.31
69796;BME280;57073;45.650;9.612;2023-03-16T23:09:50;99920.47;;;7.55;37.11
69796;BME280;57073;45.650;9.612;2023-03-16T23:14:51;99923.38;;;7.61;37.64
69796;BME280;57073;45.650;9.612;2023-03-16T23:19:51;99918.41;;;7.58;36.86
69796;BME280;57073;45.650;9.612;2023-03-16T23:24:52;99923.56;;;7.66;37.16
69796;BME280;57073;45.650;9.612;2023-03-16T23:29:52;99929.59;;;7.68;37.31
69796;BME280;57073;45.650;9.612;2023-03-16T23:34:52;99918.22;;;7.59;37.91
69796;BME280;57073;45.650;9.612;2023-03-16T23:39:53;99919.84;;;7.53;38.24
69796;BME280;57073;45.650;9.612;2023-03-16T23:44:53;99913.41;;;7.41;38.75
69796;BME280;57073;45.650;9.612;2023-03-16T23:49:54;99912.16;;;7.44;38.93
69796;BME280;57073;45.650;9.612;2023-03-16T23:54:55;99906.56;;;7.39;39.06
69796;BME280;57073;45.650;9.612;2023-03-16T23:59:56;99909.25;;;7.39;39.37
